Flight Track Log - Related Links

Times and Time Zones

All times are in EDT time to prevent confusion due to time zone crossing. See the SWA1102 flight status page for this flight to view local times or setup timezone preferences in your user account.

Time Position Orientation Groundspeed Altitude Reporting Facility
EDT Latitude Longitude Course Direction KTS MPH feet Rate Location/Type
Wed 08:56:49 PM 39.2661 -94.7511 202° Southwest 168 193 3,000  Level Kansas City Center
Wed 08:57:51 PM 39.2742 -94.8072 281° West 226 260 5,300 2,439 Climbing Kansas City Center
Wed 08:58:52 PM 39.3539 -94.7944 North 293 337 8,000 2,780 Climbing Kansas City Center
Wed 08:59:54 PM 39.4356 -94.7808 North 295 339 11,000 2,468 Climbing Kansas City Center
Wed 09:00:56 PM 39.5303 -94.7628 North 347 399 13,100 2,806 Climbing Kansas City Center
Wed 09:01:58 PM 39.6511 -94.7403 North 363 418 16,800 3,707 Climbing Kansas City Center
Wed 09:02:59 PM 39.7489 -94.7233 North 357 411 20,700 2,634 Climbing Kansas City Center
Wed 09:04:01 PM 39.8483 -94.7053 North 364 419 22,200 1,707 Climbing Kansas City Center
Wed 09:05:02 PM 39.9597 -94.6847 North 401 461 24,200 1,463 Climbing Kansas City Center
Wed 09:06:04 PM 40.0761 -94.6633 North 421 484 25,200 878 Climbing Kansas City Center
Wed 09:07:05 PM 40.1986 -94.6394 North 444 511 26,000 634 Climbing Kansas City Center
Wed 09:08:07 PM 40.3225 -94.6183 North 446 513 26,500 566 Climbing Kansas City Center
Wed 09:08:51 PM 40.4189 -94.6047 North 448 516 27,000 286 Climbing Minneapolis Center
Wed 09:09:52 PM 40.5456 -94.5875 North 453 521 27,000 976 Level Minneapolis Center
Wed 09:10:54 PM 40.6922 -94.5500 11° North 458 527 29,000 1,951 Climbing Minneapolis Center
Wed 09:11:55 PM 40.8122 -94.5044 16° North 457 526 31,000 1,854 Climbing Minneapolis Center
Wed 09:12:57 PM 40.9344 -94.4594 16° North 457 526 32,800 1,694 Climbing Minneapolis Center
Wed 09:13:59 PM 41.0556 -94.4142 16° North 457 526 34,500 1,073 Climbing Minneapolis Center
Wed 09:15:00 PM 41.1817 -94.3661 16° North 457 526 35,000 244 Climbing Minneapolis Center
Wed 09:16:02 PM 41.3033 -94.3208 16° North 456 525 35,000  Level Minneapolis Center
Wed 09:17:03 PM 41.4236 -94.2753 16° North 455 524 35,000  Level Minneapolis Center
Wed 09:18:05 PM 41.5442 -94.2306 16° North 452 520 35,000  Level Minneapolis Center
Wed 09:19:07 PM 41.6817 -94.1783 16° North 451 519 35,000  Level Minneapolis Center
Wed 09:20:08 PM 41.8075 -94.1297 16° North 450 518 35,000  Level Minneapolis Center
Wed 09:21:10 PM 41.9275 -94.0842 16° North 450 518 35,000 -146 Level Minneapolis Center
Wed 09:22:11 PM 42.0481 -94.0381 16° North 450 518 34,700 -634 Descending Minneapolis Center
Wed 09:23:13 PM 42.1683 -93.9914 16° North 450 518 33,700 -823 Descending Minneapolis Center
Wed 09:24:15 PM 42.2978 -93.9408 16° North 447 514 33,000 -341 Descending Minneapolis Center
Wed 09:25:16 PM 42.4189 -93.8947 16° North 449 517 33,000  Level Minneapolis Center
Wed 09:26:18 PM 42.5400 -93.8486 16° North 449 517 33,000  Level Minneapolis Center
Wed 09:27:19 PM 42.6597 -93.7997 17° North 450 518 33,000  Level Minneapolis Center
Wed 09:28:21 PM 42.7794 -93.7533 16° North 449 517 33,000  Level Minneapolis Center
Wed 09:29:23 PM 42.9014 -93.7242 10° North 447 514 33,000  Level Minneapolis Center
Wed 09:30:24 PM 43.0258 -93.7028 North 448 516 33,000  Level Minneapolis Center
Wed 09:31:26 PM 43.1731 -93.6733 North 448 516 33,000 -683 Level Minneapolis Center
Wed 09:32:27 PM 43.2983 -93.6489 North 450 518 31,600 -2,098 Descending Minneapolis Center
Wed 09:33:29 PM 43.4233 -93.6233 North 455 524 28,700 -2,613 Descending Minneapolis Center
Wed 09:34:31 PM 43.5431 -93.5997 North 444 511 26,200 -2,390 Descending Minneapolis Center
Wed 09:35:32 PM 43.6553 -93.5778 North 419 482 23,800 -2,293 Descending Minneapolis Center
Wed 09:36:34 PM 43.7642 -93.5572 North 402 463 21,500 -2,244 Descending Minneapolis Center
Wed 09:37:35 PM 43.8678 -93.5361 North 387 445 19,200 -2,293 Descending Minneapolis Center
Wed 09:38:37 PM 43.9678 -93.5156 North 367 422 16,800 -2,439 Descending Minneapolis Center
Wed 09:39:38 PM 44.0850 -93.4922 North 360 414 14,200 -2,341 Descending Minneapolis Center
Wed 09:40:40 PM 44.1797 -93.4731 North 351 404 12,000 -1,548 Descending Minneapolis Center
Wed 09:41:42 PM 44.2719 -93.4361 16° North 346 398 11,000 -488 Descending Minneapolis Center
Wed 09:42:43 PM 44.3592 -93.3725 28° Northeast 356 410 11,000  Level Minneapolis Center
Wed 09:43:45 PM 44.4447 -93.3128 26° Northeast 348 400 11,000  Level Minneapolis Center
Wed 09:44:46 PM 44.5286 -93.2539 27° Northeast 341 392 11,000 -390 Level Minneapolis Center
Wed 09:45:48 PM 44.6103 -93.1969 26° Northeast 334 384 10,200 -1,073 Descending Minneapolis Center
Wed 09:46:49 PM 44.6861 -93.2167 350° North 280 322 8,800 -1,073 Descending Minneapolis Center
Wed 09:47:51 PM 44.7581 -93.2619 336° Northwest 272 313 8,000 -537 Descending Minneapolis Center
Wed 09:48:52 PM 44.8236 -93.3075 334° Northwest 260 299 7,700 -829 Descending Minneapolis Center
Wed 09:49:54 PM 44.8503 -93.3981 293° West 214 246 6,300 -823 Descending Minneapolis Center
Wed 09:50:56 PM 44.8758 -93.4750 295° West 221 254 6,000 -439 Descending Minneapolis Center
Wed 09:51:57 PM 44.9206 -93.5211 324° Northwest 234 269 5,400 -683 Descending Minneapolis Center
Wed 09:52:59 PM 44.9725 -93.4644 38° Northeast 239 275 4,600 -927 Descending Minneapolis Center
Wed 09:54:00 PM 44.9547 -93.3878 108° East 201 231 3,500 -1,005 Descending Minneapolis Center
Wed 09:56:04 PM 44.9053 -93.2739 121° Southeast 154 177 1,500 -968 Descending Minneapolis Center
Wed 09:58:00 PM 44.8667 -93.2167 50° Northeast  Level FlightAware Approximate

Login

Don't have an account? Register now (free) for customized features, flight alerts, and more!